Details From SBIZ - Prefeito Renato Moreira
To SBSL - Marechal Cunha Machado
Flight Number -
Tags generated
Created
Modified
Stats Distance 263 nm / 487 km
Max Altitude 23,500 ft / 7,163 m
Waypoints 4
Social Downloads 1
Likes 0
Share VATSIM

Download

Looking for another format? Having issues loading an existing format? Contact us
Advertisement - Login to hide

Notes

Basic altitude profile: - Ascent Rate: 2500ft/min - Ascent Speed: 250kts - Cruise Altitude: 35000ft - Cruise Speed: 447kts - Descent Rate: 1800ft/min - Descent Speed: 250kts Options: - Use NATs: yes - Use PACOTS: yes - Use low airways: no - Use high airways: yes

Route

SBIZ YTZ UL540 RIXOM SBSL

ID Type Via Altitude Latitude Longitude Leg Dist Tot Dist Heading (true) Name
O SBIZ APT - 0 ft / 0 m -5.53129˚ -47.46005˚ - 0 nm - Prefeito Renato Moreira
YTZ VOR - 200 ft / 61 m -5.52383˚ -47.44983˚ 0 nm 0 nm 54° / 54° IMPERATRIZ VOR-DME
RIXOM FIX UL540 (AWY-HI) 23,500 ft / 7,163 m -3.60567˚ -45.07883˚ 182 nm 183 nm 51° / 51° -
O SBSL APT - 0 ft / 0 m -2.58731˚ -44.23638˚ 79 nm 262 nm 40° / 40° Marechal Cunha Machado

Altitude Profile

Advertisement - Login to hide

Weather


0- 5 10 15 20 25 30 35+ Temperature / ° C

Clouds and Precipitation
Forecast for 2017-12-11 06:00 UTC. Updated 42 minutes ago

Ground ~20,000 ft ~40,000 ft Winds

SBIZ

Details ICAO SBIZ (IMP)
Name Prefeito Renato Moreira
Region Brazil
Timezone America/Fortaleza (UTC-3.0)
Stats Elevation 431 ft / 131 m (AMSL)
Location -5.531290° -47.460048°
Runways 1
Magnetic Variation 20.985° W

METAR

Not found

TAF

TAF SBIZ 102200Z 1100/1112 00000KT CAVOK TX27/1100Z TN24/1109Z BECMG 1105/1107 09005KT BECMG 1109/1111 9999 SCT020 RMK PDY

Decode

Departure Runways

ID Width Length Bearing (true) Bearing (mag) Surface Threshold Offset Overrun Length
07 148 ft / 45 m 5,932 ft / 1,808 m 53.74° 74.73° Asphalt 0 ft / 0 m 200 ft / 61 m
25 148 ft / 45 m 5,932 ft / 1,808 m 233.74° 254.73° Asphalt 0 ft / 0 m 200 ft / 61 m

SBSL

Details ICAO SBSL (SLZ)
Name Marechal Cunha Machado
Region Brazil
Timezone America/Fortaleza (UTC-3.0)
Stats Elevation 178 ft / 54 m (AMSL)
Location -2.587308° -44.236384°
Runways 2
Magnetic Variation 20.915° W

METAR

SBSL 110400Z 04006KT 9999 SCT017 26/24 Q1009

Decode

TAF

TAF SBSL 102200Z 1100/1124 03010KT 9999 FEW017 TN25/1106Z TX32/1115Z BECMG 1109/1111 04015KT BKN020 BECMG 1113/1115 SCT020 BECMG 1121/1123 03010KT CAVOK RMK PDY

Decode

Destination Runways

ID Width Length Bearing (true) Bearing (mag) Surface Threshold Offset Overrun Length
06 148 ft / 45 m 7,902 ft / 2,409 m 38.74° 59.66° Asphalt 0 ft / 0 m 197 ft / 60 m
09 135 ft / 41 m 4,867 ft / 1,483 m 68.93° 89.85° Asphalt 270 ft / 82 m 185 ft / 56 m
24 148 ft / 45 m 7,902 ft / 2,409 m 218.74° 239.66° Asphalt 0 ft / 0 m 197 ft / 60 m
27 135 ft / 41 m 4,867 ft / 1,483 m 248.93° 269.85° Asphalt 0 ft / 0 m 200 ft / 61 m

Popular Alternatives